Time;durP1;ratioP1;P1;durP2;ratioP2;P2;SDS_P1;SDS_P2;PMS_P1;PMS_P2;Temp;Humidity;BMP_temperature;BMP_pressure;BME280_temperature;BME280_humidity;BME280_pressure;Samples;Min_cycle;Max_cycle;Signal;HPM_P1;HPM_P2
2022/06/29 00:01:39;;;;;;;14.45;5.85;;;;;;;18.08;84.15;101564.25;5019778;28;20044;-48
2022/06/29 00:04:04;;;;;;;10.05;5.38;;;;;;;18.06;84.74;101563.63;5020841;28;20052;-49
2022/06/29 00:06:30;;;;;;;17.50;5.60;;;;;;;18.00;84.77;101564.38;5021308;28;20030;-50
2022/06/29 00:08:55;;;;;;;14.25;5.45;;;;;;;17.98;85.33;101561.88;5021593;28;20512;-50
2022/06/29 00:11:20;;;;;;;14.63;5.45;;;;;;;17.96;86.09;101563.09;5020167;28;20120;-50
2022/06/29 00:13:46;;;;;;;12.05;5.50;;;;;;;17.92;85.93;101557.22;5020536;28;20040;-50
2022/06/29 00:16:11;;;;;;;14.30;6.00;;;;;;;17.87;85.73;101556.97;5019629;28;20187;-48
2022/06/29 00:18:37;;;;;;;13.48;6.07;;;;;;;17.84;86.46;101562.75;5020695;28;20017;-51
2022/06/29 00:21:02;;;;;;;15.15;6.30;;;;;;;17.79;87.07;101552.50;5020629;28;20021;-51
2022/06/29 00:23:28;;;;;;;17.15;5.97;;;;;;;17.75;86.49;101551.19;5016966;28;20468;-47
2022/06/29 00:25:53;;;;;;;12.48;6.15;;;;;;;17.70;88.39;101554.50;5020319;28;20048;-50
2022/06/29 00:28:19;;;;;;;17.25;6.70;;;;;;;17.67;86.58;101556.75;5015846;28;20538;-48
2022/06/29 00:30:44;;;;;;;12.95;6.30;;;;;;;17.64;87.87;101546.31;4998649;28;20010;-51
2022/06/29 00:33:09;;;;;;;10.05;5.95;;;;;;;17.61;87.82;101552.91;4999374;28;20079;-50
2022/06/29 00:35:35;;;;;;;14.00;6.50;;;;;;;17.59;88.53;101548.75;5000377;28;20022;-49
2022/06/29 00:38:01;;;;;;;13.27;6.65;;;;;;;17.53;87.96;101548.47;5000372;28;20125;-49
2022/06/29 00:40:26;;;;;;;12.95;6.50;;;;;;;17.51;89.02;101553.25;4999542;28;20209;-52
2022/06/29 00:42:51;;;;;;;12.50;6.38;;;;;;;17.48;89.72;101545.50;5000636;28;20022;-50
2022/06/29 00:45:17;;;;;;;11.43;6.55;;;;;;;17.49;89.66;101543.63;5000534;28;20037;-50
2022/06/29 00:47:42;;;;;;;12.90;7.10;;;;;;;17.44;88.44;101537.97;4998983;28;20053;-50
2022/06/29 00:50:08;;;;;;;15.25;6.75;;;;;;;17.41;89.12;101543.75;5000915;28;20062;-48
2022/06/29 00:52:37;;;;;;;17.80;6.68;;;;;;;17.34;89.66;101541.81;4995544;28;20424;-49
2022/06/29 00:55:10;;;;;;;10.35;6.63;;;;;;;17.30;89.81;101528.88;5000923;28;20384;-50
2022/06/29 00:57:40;;;;;;;13.23;7.22;;;;;;;17.28;90.38;101534.47;4999091;28;20031;-51
2022/06/29 01:00:06;;;;;;;14.68;7.53;;;;;;;17.24;90.51;101530.44;5000591;28;20377;-47
2022/06/29 01:02:34;;;;;;;12.48;7.13;;;;;;;17.22;91.08;101524.41;4998860;28;20048;-50
2022/06/29 01:05:01;;;;;;;13.93;7.25;;;;;;;17.23;91.94;101527.97;5000853;28;20053;-47
2022/06/29 01:07:29;;;;;;;13.35;7.50;;;;;;;17.20;92.57;101525.63;4999793;28;20112;-50
2022/06/29 01:09:55;;;;;;;14.15;7.70;;;;;;;17.18;91.55;101520.44;4999498;28;20030;-49
2022/06/29 01:12:21;;;;;;;12.90;7.28;;;;;;;17.14;92.66;101516.41;4998128;28;20068;-50
2022/06/29 01:14:49;;;;;;;15.20;7.95;;;;;;;17.11;92.78;101514.13;5000722;28;20062;-49
2022/06/29 01:17:14;;;;;;;14.18;7.70;;;;;;;17.10;92.85;101515.94;4999077;28;20033;-48
2022/06/29 01:19:41;;;;;;;21.10;7.85;;;;;;;17.05;93.31;101520.25;4999657;28;20083;-50
2022/06/29 01:22:10;;;;;;;10.75;7.60;;;;;;;17.03;93.58;101512.34;4999839;28;20480;-51
2022/06/29 01:24:37;;;;;;;14.00;8.35;;;;;;;17.01;93.00;101518.97;4988859;28;20087;-51
2022/06/29 01:27:03;;;;;;;18.17;7.55;;;;;;;16.95;92.97;101518.69;4999552;28;20530;-52
2022/06/29 01:29:29;;;;;;;14.65;7.80;;;;;;;16.89;93.33;101519.41;5000893;28;20030;-52
2022/06/29 01:31:55;;;;;;;11.70;8.05;;;;;;;16.93;94.91;101507.22;4998820;28;20036;-52
2022/06/29 01:34:23;;;;;;;11.98;7.70;;;;;;;16.90;94.11;101514.84;4999731;28;20037;-53
2022/06/29 01:36:48;;;;;;;14.02;7.93;;;;;;;16.88;93.83;101508.81;4999204;28;20026;-52
2022/06/29 01:39:13;;;;;;;14.65;7.95;;;;;;;16.86;94.34;101509.00;5000196;28;20498;-53
2022/06/29 01:41:38;;;;;;;12.25;7.43;;;;;;;16.85;94.26;101511.88;4999263;28;20544;-52
2022/06/29 01:44:04;;;;;;;17.63;8.35;;;;;;;16.80;95.32;101498.91;4999737;28;20040;-54
2022/06/29 01:46:29;;;;;;;15.30;8.60;;;;;;;16.78;94.21;101504.53;4996716;28;20425;-51
2022/06/29 01:48:54;;;;;;;14.13;8.15;;;;;;;16.78;94.62;101509.06;4999449;28;20026;-53
2022/06/29 01:51:20;;;;;;;12.73;8.05;;;;;;;16.73;95.25;101504.22;4999204;28;20013;-53
2022/06/29 01:53:45;;;;;;;14.32;8.13;;;;;;;16.72;95.77;101502.56;4996811;28;20053;-51
2022/06/29 01:56:10;;;;;;;17.15;8.70;;;;;;;16.74;95.32;101510.47;4999458;28;20038;-53
2022/06/29 01:58:36;;;;;;;14.57;7.97;;;;;;;16.73;96.01;101500.69;4999627;28;20022;-51
2022/06/29 02:01:01;;;;;;;12.30;7.97;;;;;;;16.70;94.46;101498.34;4998611;28;20045;-52
2022/06/29 02:03:26;;;;;;;12.02;8.35;;;;;;;16.69;95.73;101483.22;4998722;28;20037;-51
2022/06/29 02:05:51;;;;;;;14.20;8.55;;;;;;;16.65;95.04;101489.97;4999062;28;20090;-52
2022/06/29 02:08:17;;;;;;;15.15;8.20;;;;;;;16.65;95.81;101484.59;4998695;28;20021;-51
2022/06/29 02:10:42;;;;;;;17.80;8.38;;;;;;;16.58;96.06;101479.94;4999034;28;20022;-52
2022/06/29 02:13:07;;;;;;;13.38;8.98;;;;;;;16.56;96.19;101486.53;4998855;28;20516;-52
2022/06/29 02:15:33;;;;;;;13.90;8.77;;;;;;;16.53;96.39;101486.91;4998858;28;20045;-52
2022/06/29 02:17:58;;;;;;;14.35;8.95;;;;;;;16.53;97.41;101495.00;4986504;28;20549;-51
2022/06/29 02:20:24;;;;;;;16.83;9.10;;;;;;;16.52;97.19;101504.13;4998952;28;20095;-52
2022/06/29 02:22:49;;;;;;;11.40;8.93;;;;;;;16.45;96.36;101490.53;4998416;28;20021;-52
2022/06/29 02:25:15;;;;;;;13.85;8.70;;;;;;;16.44;96.09;101494.25;4998647;28;20030;-52
2022/06/29 02:27:49;;;;;;;13.63;8.80;;;;;;;16.52;96.91;101494.16;4998819;28;20010;-51
2022/06/29 02:30:16;;;;;;;15.13;9.15;;;;;;;16.56;97.50;101497.31;4998277;28;20034;-51
2022/06/29 02:35:29;;;;;;;16.77;9.77;;;;;;;16.63;97.42;101490.16;4999443;28;20041;-52
2022/06/29 02:37:55;;;;;;;14.23;9.35;;;;;;;16.65;97.24;101493.53;4998066;28;20038;-52
2022/06/29 02:40:21;;;;;;;11.50;8.98;;;;;;;16.66;96.41;101488.97;4997979;28;20020;-53
2022/06/29 02:42:46;;;;;;;17.15;9.05;;;;;;;16.66;97.12;101483.56;4998794;28;20117;-52
2022/06/29 02:45:12;;;;;;;16.05;9.35;;;;;;;16.63;97.22;101476.69;4980179;28;20030;-53
2022/06/29 02:47:37;;;;;;;16.92;8.75;;;;;;;16.64;97.29;101480.22;4996787;28;20061;-53
2022/06/29 02:50:03;;;;;;;16.42;8.80;;;;;;;16.55;96.79;101482.19;4999670;28;20091;-53
2022/06/29 02:52:28;;;;;;;13.90;8.73;;;;;;;16.53;98.06;101482.38;4998284;28;20121;-52
2022/06/29 02:54:54;;;;;;;12.23;8.70;;;;;;;16.49;97.47;101485.59;4999066;28;20117;-53
2022/06/29 02:57:20;;;;;;;18.08;8.82;;;;;;;16.47;97.30;101477.69;4997770;28;20484;-52
2022/06/29 02:59:45;;;;;;;17.60;9.07;;;;;;;16.44;98.17;101472.66;4999099;28;20523;-51
2022/06/29 03:02:11;;;;;;;13.18;9.20;;;;;;;16.47;97.94;101476.88;4996741;28;20030;-51
2022/06/29 03:04:36;;;;;;;11.48;8.82;;;;;;;16.50;97.94;101471.13;4997820;28;20029;-51
2022/06/29 03:07:02;;;;;;;15.40;9.20;;;;;;;16.46;98.35;101475.19;4998611;28;20050;-51
2022/06/29 03:09:27;;;;;;;11.13;9.05;;;;;;;16.42;98.61;101464.75;4998269;28;20080;-51
2022/06/29 03:11:52;;;;;;;19.02;9.50;;;;;;;16.38;100.00;101468.03;4998158;28;20149;-50
2022/06/29 03:14:18;;;;;;;22.63;10.35;;;;;;;16.31;100.00;101454.44;4998276;28;20034;-51
2022/06/29 03:16:43;;;;;;;20.40;9.85;;;;;;;16.31;100.00;101457.16;4997532;28;20366;-50
2022/06/29 03:19:08;;;;;;;23.10;10.27;;;;;;;16.25;100.00;101463.25;4979301;28;20139;-52
2022/06/29 03:21:34;;;;;;;21.90;10.13;;;;;;;16.27;100.00;101460.38;4997897;28;20121;-53
2022/06/29 03:23:59;;;;;;;21.77;10.30;;;;;;;16.25;100.00;101463.25;4998743;28;20077;-51
2022/06/29 03:26:24;;;;;;;22.83;10.48;;;;;;;16.19;100.00;101451.38;4997531;28;20100;-52
2022/06/29 03:28:52;;;;;;;21.63;10.48;;;;;;;16.23;100.00;101454.53;4998577;28;20025;-52
2022/06/29 03:31:20;;;;;;;22.02;10.15;;;;;;;16.22;100.00;101452.84;4996520;28;20044;-52
2022/06/29 03:33:46;;;;;;;19.75;9.77;;;;;;;16.24;100.00;101445.41;4997510;28;20030;-53
2022/06/29 03:36:12;;;;;;;22.55;10.25;;;;;;;16.20;100.00;101444.94;4997807;28;20034;-53
2022/06/29 03:38:37;;;;;;;22.27;11.00;;;;;;;16.19;100.00;101440.59;4997970;28;20032;-49
2022/06/29 03:41:02;;;;;;;19.70;10.65;;;;;;;16.18;100.00;101443.47;4997950;28;20661;-52
2022/06/29 03:43:28;;;;;;;18.08;11.23;;;;;;;16.16;100.00;101438.25;4997583;28;20446;-51
2022/06/29 03:45:53;;;;;;;14.05;10.50;;;;;;;16.14;100.00;101431.38;4996645;28;20586;-53
2022/06/29 03:48:18;;;;;;;19.67;10.13;;;;;;;16.13;100.00;101430.53;4996887;28;20030;-53
2022/06/29 03:50:44;;;;;;;22.48;10.18;;;;;;;16.12;100.00;101434.25;4997987;28;20026;-50
2022/06/29 03:53:09;;;;;;;20.52;9.80;;;;;;;16.14;100.00;101432.22;4997651;28;20080;-48
2022/06/29 03:55:34;;;;;;;13.40;9.55;;;;;;;16.14;100.00;101425.97;4997853;28;20030;-48
2022/06/29 03:58:00;;;;;;;17.10;10.43;;;;;;;16.12;100.00;101428.84;4998624;28;20026;-49
2022/06/29 04:00:25;;;;;;;17.50;9.98;;;;;;;16.15;100.00;101430.34;4997103;28;20033;-51
2022/06/29 04:02:50;;;;;;;15.68;10.50;;;;;;;16.14;100.00;101425.97;4997414;28;20131;-50
2022/06/29 04:05:16;;;;;;;16.35;10.77;;;;;;;16.16;100.00;101429.34;4997507;28;20030;-46
2022/06/29 04:07:41;;;;;;;15.35;10.02;;;;;;;16.16;100.00;101427.47;4997736;28;20026;-49
2022/06/29 04:10:07;;;;;;;17.88;9.93;;;;;;;16.16;100.00;101418.56;4998811;28;20033;-48
2022/06/29 04:12:34;;;;;;;18.80;10.32;;;;;;;16.20;100.00;101420.69;5001502;28;20454;-50
2022/06/29 04:15:00;;;;;;;16.88;10.30;;;;;;;16.20;100.00;101428.78;5001000;28;20407;-48
2022/06/29 04:17:25;;;;;;;19.05;10.70;;;;;;;16.24;100.00;101421.16;5000824;28;20026;-48
2022/06/29 04:19:53;;;;;;;19.48;10.73;;;;;;;16.26;100.00;101423.66;4999983;28;20057;-49
2022/06/29 04:22:20;;;;;;;15.90;10.35;;;;;;;16.28;100.00;101421.66;4991989;28;20129;-51
2022/06/29 04:24:45;;;;;;;14.27;10.10;;;;;;;16.33;100.00;101425.44;5001112;28;20050;-49
2022/06/29 04:27:11;;;;;;;18.83;10.32;;;;;;;16.34;100.00;101424.41;5000868;28;20053;-50
2022/06/29 04:29:37;;;;;;;17.60;10.90;;;;;;;16.41;100.00;101430.75;5001104;28;20056;-49
2022/06/29 04:32:03;;;;;;;18.80;10.30;;;;;;;16.40;100.00;101422.84;5000487;28;20462;-49
2022/06/29 04:34:28;;;;;;;16.00;10.65;;;;;;;16.46;100.00;101427.47;5000414;28;20063;-47
2022/06/29 04:36:54;;;;;;;19.27;10.15;;;;;;;16.49;100.00;101419.03;4983217;28;20097;-47
2022/06/29 04:39:19;;;;;;;18.25;10.80;;;;;;;16.49;100.00;101415.50;4998433;28;20121;-48
2022/06/29 04:41:45;;;;;;;19.23;10.68;;;;;;;16.49;100.00;101413.63;5000068;28;20408;-48
2022/06/29 04:44:11;;;;;;;16.15;10.02;;;;;;;16.52;100.00;101418.66;5000323;28;20428;-51
2022/06/29 04:46:36;;;;;;;21.80;11.13;;;;;;;16.54;100.00;101419.31;4999115;28;20100;-49
2022/06/29 04:49:03;;;;;;;18.27;11.52;;;;;;;16.54;100.00;101411.22;5000725;28;20018;-48
2022/06/29 04:51:30;;;;;;;19.50;11.23;;;;;;;16.60;100.00;101412.34;5000107;28;20724;-47
2022/06/29 04:53:57;;;;;;;16.55;11.35;;;;;;;16.67;100.00;101413.28;4999798;28;20414;-49
2022/06/29 04:56:24;;;;;;;17.30;11.32;;;;;;;16.68;100.00;101414.91;5000057;28;20350;-50
2022/06/29 04:58:51;;;;;;;19.77;11.52;;;;;;;16.71;100.00;101413.72;5006392;28;20448;-50
2022/06/29 05:01:17;;;;;;;16.67;11.73;;;;;;;16.79;100.00;101417.16;4999279;28;20116;-50
2022/06/29 05:03:42;;;;;;;21.92;11.48;;;;;;;16.88;100.00;101409.81;5004896;28;20491;-49
2022/06/29 05:06:07;;;;;;;20.92;12.20;;;;;;;17.03;100.00;101417.88;4997103;28;20034;-46
2022/06/29 05:08:34;;;;;;;18.98;12.27;;;;;;;17.08;99.59;101407.34;4998707;28;20097;-48
2022/06/29 05:10:59;;;;;;;20.60;12.05;;;;;;;17.17;98.62;101405.38;5009819;28;20455;-50
2022/06/29 05:13:24;;;;;;;20.48;12.50;;;;;;;17.28;98.74;101404.06;5000123;28;20059;-51
2022/06/29 05:15:50;;;;;;;19.80;11.73;;;;;;;17.36;99.73;101398.50;4998440;28;20014;-51
2022/06/29 05:18:15;;;;;;;21.55;12.40;;;;;;;17.42;97.94;101396.91;4999853;28;20440;-49
2022/06/29 05:20:42;;;;;;;23.80;12.07;;;;;;;17.53;97.65;101396.38;5004569;28;20072;-53
2022/06/29 05:23:08;;;;;;;15.30;11.95;;;;;;;17.61;96.33;101392.72;5006837;28;20148;-54
2022/06/29 05:25:34;;;;;;;24.02;12.45;;;;;;;17.64;97.14;101390.47;4982139;28;20018;-53
2022/06/29 05:27:59;;;;;;;19.40;12.13;;;;;;;17.69;96.11;101395.28;5000534;28;20139;-51
2022/06/29 05:30:24;;;;;;;18.52;12.00;;;;;;;17.75;98.17;101393.66;5001589;28;20038;-52
2022/06/29 05:32:50;;;;;;;19.17;12.23;;;;;;;17.78;96.92;101394.09;5005560;28;20018;-52
2022/06/29 05:35:15;;;;;;;19.30;12.40;;;;;;;17.83;96.66;101386.25;5005093;28;20131;-52
2022/06/29 05:37:41;;;;;;;20.85;12.20;;;;;;;17.89;99.01;101390.91;5012230;28;20062;-52
2022/06/29 05:40:07;;;;;;;22.10;12.00;;;;;;;17.97;94.90;101394.50;5011549;28;20056;-50
2022/06/29 05:42:32;;;;;;;23.50;12.23;;;;;;;17.99;96.35;101390.56;5011455;28;20092;-52
2022/06/29 05:44:57;;;;;;;18.23;12.10;;;;;;;18.07;96.85;101395.84;5013428;28;20036;-52
2022/06/29 05:47:22;;;;;;;24.85;13.07;;;;;;;18.11;97.76;101385.47;5001092;28;20099;-52
2022/06/29 05:49:48;;;;;;;21.38;12.55;;;;;;;18.18;95.64;101383.63;5000342;28;20127;-53
2022/06/29 05:52:13;;;;;;;25.02;12.13;;;;;;;18.27;94.32;101385.13;5001976;28;20022;-52
2022/06/29 05:54:39;;;;;;;17.35;10.60;;;;;;;18.38;93.45;101382.91;5009179;28;20471;-51
2022/06/29 05:57:05;;;;;;;22.58;11.85;;;;;;;18.48;92.96;101388.78;4998786;28;20091;-51
2022/06/29 05:59:31;;;;;;;21.02;11.23;;;;;;;18.57;91.25;101390.28;4999830;28;20037;-51
2022/06/29 06:01:56;;;;;;;18.67;11.82;;;;;;;18.68;91.39;101398.88;5003356;28;20130;-52
2022/06/29 06:04:22;;;;;;;22.33;12.18;;;;;;;18.85;93.79;101394.81;5004908;28;20118;-52
2022/06/29 06:06:47;;;;;;;21.38;11.93;;;;;;;18.94;89.61;101399.00;4981389;28;20400;-52
2022/06/29 06:09:12;;;;;;;16.63;12.02;;;;;;;19.09;89.45;101392.59;4999474;28;20036;-52
2022/06/29 06:11:38;;;;;;;21.40;12.60;;;;;;;19.19;88.72;101391.19;5008786;28;20119;-51
2022/06/29 06:14:03;;;;;;;26.17;12.50;;;;;;;19.23;88.14;101394.31;4999434;28;20029;-53
2022/06/29 06:16:28;;;;;;;28.63;13.13;;;;;;;19.30;87.59;101394.31;5015271;28;20071;-51
2022/06/29 06:18:54;;;;;;;23.65;12.48;;;;;;;19.34;87.40;101387.44;5003210;28;20480;-52
2022/06/29 06:21:19;;;;;;;21.10;13.27;;;;;;;19.39;87.34;101388.47;4998554;28;20164;-51
2022/06/29 06:23:44;;;;;;;24.00;13.48;;;;;;;19.48;87.97;101393.69;4998387;28;20046;-51
2022/06/29 06:26:10;;;;;;;22.67;12.20;;;;;;;19.60;87.29;101385.78;4968888;28;20523;-52
2022/06/29 06:28:35;;;;;;;21.13;12.77;;;;;;;19.73;87.31;101396.66;4999680;28;20033;-53
2022/06/29 06:31:01;;;;;;;21.67;13.30;;;;;;;19.87;85.08;101402.91;5000081;28;20191;-53
2022/06/29 06:33:26;;;;;;;20.30;13.10;;;;;;;19.98;85.96;101394.16;4997587;28;20018;-53
2022/06/29 06:35:52;;;;;;;23.80;14.07;;;;;;;20.10;85.22;101388.94;4999559;28;20064;-53
2022/06/29 06:38:17;;;;;;;23.17;13.60;;;;;;;20.26;86.01;101395.78;5005551;28;20098;-52
2022/06/29 06:43:26;;;;;;;21.52;14.15;;;;;;;20.41;81.66;101395.53;4992817;28;20037;-52
2022/06/29 06:45:52;;;;;;;22.65;15.02;;;;;;;20.39;82.35;101384.06;4992016;28;20030;-51
2022/06/29 06:48:17;;;;;;;25.67;14.35;;;;;;;20.56;82.44;101400.72;4998612;28;20338;-52
2022/06/29 06:50:43;;;;;;;23.25;14.95;;;;;;;20.59;81.72;101394.88;5004208;28;20024;-53
2022/06/29 06:53:08;;;;;;;28.98;16.08;;;;;;;20.72;81.87;101394.00;5006710;28;20026;-50
2022/06/29 06:55:34;;;;;;;20.98;14.55;;;;;;;20.76;81.30;101392.53;4997213;28;20143;-51
2022/06/29 06:58:01;;;;;;;22.20;15.73;;;;;;;20.86;82.37;101396.44;4999026;28;20026;-52
2022/06/29 07:00:27;;;;;;;21.92;14.90;;;;;;;20.90;79.50;101394.13;4997868;28;20045;-52
2022/06/29 07:02:52;;;;;;;24.40;14.73;;;;;;;21.00;80.11;101402.63;4997610;28;20040;-49
2022/06/29 07:05:18;;;;;;;20.58;14.98;;;;;;;21.10;78.86;101390.50;4998498;28;20029;-50
2022/06/29 07:07:43;;;;;;;22.35;14.93;;;;;;;21.23;80.92;101393.09;4998549;28;20095;-50
2022/06/29 07:10:09;;;;;;;21.33;14.88;;;;;;;21.45;82.44;101390.03;4997655;28;20422;-49
2022/06/29 07:12:34;;;;;;;21.70;15.38;;;;;;;21.60;80.13;101385.13;4998059;28;20048;-53
2022/06/29 07:14:59;;;;;;;27.48;15.43;;;;;;;21.75;79.23;101392.97;4998234;28;20018;-52
2022/06/29 07:17:25;;;;;;;23.75;15.90;;;;;;;21.72;76.59;101387.97;4997494;28;20018;-53
2022/06/29 07:19:50;;;;;;;24.15;15.82;;;;;;;21.82;78.89;101396.47;4998675;28;20243;-53
2022/06/29 07:22:16;;;;;;;20.42;14.60;;;;;;;21.78;79.31;101390.63;4998007;28;20178;-53
2022/06/29 07:24:41;;;;;;;24.05;14.27;;;;;;;21.92;77.04;101393.25;4997602;28;20457;-54
2022/06/29 07:27:06;;;;;;;24.88;14.55;;;;;;;22.00;76.98;101398.41;4997972;28;20053;-54
2022/06/29 07:29:32;;;;;;;20.55;12.23;;;;;;;21.98;75.01;101397.78;4979890;28;20061;-54
2022/06/29 07:31:57;;;;;;;22.40;13.05;;;;;;;21.97;78.35;101393.41;4991161;28;20396;-54
2022/06/29 07:34:23;;;;;;;20.90;13.30;;;;;;;22.16;78.46;101391.53;4997644;28;20107;-53
2022/06/29 07:36:48;;;;;;;23.65;13.43;;;;;;;22.31;76.68;101388.50;4997288;28;20041;-53
2022/06/29 07:39:13;;;;;;;22.55;12.82;;;;;;;22.29;79.89;101391.44;4998042;28;20440;-55
2022/06/29 07:41:39;;;;;;;20.60;12.13;;;;;;;22.31;80.45;101389.31;4996833;28;20025;-53
2022/06/29 07:44:05;;;;;;;22.42;14.57;;;;;;;22.37;75.67;101387.59;4998076;28;20228;-50
2022/06/29 07:46:30;;;;;;;24.52;13.82;;;;;;;22.51;78.88;101389.09;5000400;28;20108;-53
2022/06/29 07:48:55;;;;;;;23.17;12.23;;;;;;;22.65;75.12;101384.31;5001760;28;20380;-54
2022/06/29 07:51:21;;;;;;;19.67;11.95;;;;;;;22.62;73.27;101378.50;5001423;28;20017;-53
2022/06/29 07:53:46;;;;;;;16.63;9.55;;;;;;;22.72;72.13;101381.50;5001966;28;20049;-54
2022/06/29 07:56:11;;;;;;;13.52;7.97;;;;;;;22.84;72.19;101385.09;5000345;28;20060;-53
2022/06/29 07:58:37;;;;;;;16.65;8.70;;;;;;;23.01;72.74;101374.41;5002036;28;20383;-55
2022/06/29 08:01:02;;;;;;;10.73;6.32;;;;;;;23.14;67.78;101376.16;5000540;28;20046;-53
2022/06/29 08:03:27;;;;;;;11.68;6.30;;;;;;;23.16;69.38;101381.38;5001024;28;20385;-53
2022/06/29 08:05:53;;;;;;;9.30;5.50;;;;;;;23.14;67.26;101367.16;5001478;28;20087;-53
2022/06/29 08:08:18;;;;;;;14.63;5.43;;;;;;;23.31;66.51;101364.59;5001122;28;20512;-54
2022/06/29 08:10:43;;;;;;;10.57;5.57;;;;;;;23.49;66.90;101367.25;5000468;28;20049;-54
2022/06/29 08:13:09;;;;;;;11.13;5.18;;;;;;;23.62;63.91;101368.91;5000830;28;20034;-54
2022/06/29 08:15:35;;;;;;;14.77;5.45;;;;;;;23.60;61.15;101363.69;5000198;28;20026;-54
2022/06/29 08:18:00;;;;;;;12.48;4.85;;;;;;;23.68;64.93;101359.78;5000546;28;20128;-53
2022/06/29 08:20:28;;;;;;;7.10;4.43;;;;;;;23.96;66.77;101361.81;4995023;28;20018;-53
2022/06/29 08:22:53;;;;;;;10.77;4.53;;;;;;;24.11;61.87;101364.06;4995467;28;20045;-53
2022/06/29 08:25:18;;;;;;;9.38;4.38;;;;;;;24.21;62.66;101374.38;4988421;28;20038;-54
2022/06/29 08:27:51;;;;;;;8.52;4.75;;;;;;;24.27;62.65;101372.59;4999107;28;20034;-53
2022/06/29 08:30:17;;;;;;;10.80;4.43;;;;;;;24.20;57.47;101372.72;4982640;28;20029;-49
2022/06/29 08:32:44;;;;;;;15.85;4.40;;;;;;;24.26;59.44;101374.50;4982619;28;20521;-51
2022/06/29 08:35:10;;;;;;;9.77;4.63;;;;;;;24.21;57.84;101368.94;5000284;28;20452;-50
2022/06/29 08:37:37;;;;;;;10.45;4.60;;;;;;;24.39;59.71;101376.16;5000551;28;20033;-50
2022/06/29 08:40:03;;;;;;;14.27;5.15;;;;;;;24.51;59.98;101365.19;5000609;28;20040;-47
2022/06/29 08:42:28;;;;;;;9.75;5.47;;;;;;;24.72;59.60;101356.34;5000045;28;20092;-52
2022/06/29 08:44:55;;;;;;;6.45;4.50;;;;;;;24.76;55.88;101363.00;5000166;28;20049;-51
2022/06/29 08:47:20;;;;;;;11.38;4.88;;;;;;;24.85;58.82;101363.44;4999524;28;20488;-50
2022/06/29 08:49:45;;;;;;;15.27;4.28;;;;;;;25.01;61.82;101361.81;4999256;28;20253;-51
2022/06/29 08:52:11;;;;;;;16.67;5.60;;;;;;;24.89;57.40;101359.13;4997821;28;20028;-51
2022/06/29 08:54:41;;;;;;;8.32;4.53;;;;;;;25.14;58.62;101355.22;4999930;28;20091;-50
2022/06/29 08:57:07;;;;;;;12.47;4.60;;;;;;;25.53;57.92;101359.97;4999120;28;20337;-49
2022/06/29 08:59:34;;;;;;;9.95;4.00;;;;;;;25.74;53.40;101361.16;4999900;28;20029;-52
2022/06/29 09:02:00;;;;;;;7.75;4.20;;;;;;;25.58;53.92;101349.97;5000316;28;20057;-52
2022/06/29 09:04:25;;;;;;;10.07;3.78;;;;;;;25.57;56.40;101351.03;4999956;28;20461;-52
2022/06/29 09:06:56;;;;;;;11.25;3.78;;;;;;;25.56;60.77;101348.56;4999437;28;20014;-52
2022/06/29 09:09:22;;;;;;;6.85;3.35;;;;;;;25.41;53.81;101349.97;4999764;28;20407;-52
2022/06/29 09:11:50;;;;;;;8.98;4.18;;;;;;;25.22;58.35;101345.78;5000524;28;20021;-56
2022/06/29 09:14:20;;;;;;;10.82;3.28;;;;;;;25.25;55.73;101350.75;4999780;28;20038;-52
2022/06/29 09:16:48;;;;;;;5.97;2.83;;;;;;;25.49;50.96;101351.44;4994641;28;20026;-50
2022/06/29 09:19:14;;;;;;;9.00;2.72;;;;;;;25.52;51.25;101353.69;4992993;28;20358;-51
2022/06/29 09:21:51;;;;;;;9.57;3.15;;;;;;;25.60;50.61;101353.28;4999521;28;20025;-53
2022/06/29 09:24:26;;;;;;;11.00;3.10;;;;;;;25.90;52.24;101352.09;4999822;28;20524;-52
2022/06/29 09:26:54;;;;;;;6.10;2.83;;;;;;;25.96;47.80;101348.38;4999576;28;20092;-49
2022/06/29 09:29:26;;;;;;;13.63;2.70;;;;;;;26.13;50.54;101352.97;4997710;28;20036;-52
2022/06/29 09:32:06;;;;;;;11.60;3.70;;;;;;;26.41;55.37;101357.47;4999211;28;20022;-51
2022/06/29 09:34:33;;;;;;;5.78;2.90;;;;;;;26.73;51.64;101351.28;5000288;28;20034;-52
2022/06/29 09:37:00;;;;;;;7.55;2.60;;;;;;;26.99;51.45;101355.13;4981699;28;20105;-52
2022/06/29 09:39:46;;;;;;;11.68;4.47;;;;;;;27.26;58.65;101344.13;4999160;28;20304;-49
2022/06/29 09:42:18;;;;;;;10.00;4.38;;;;;;;27.35;54.39;101347.25;4992533;28;20136;-50
2022/06/29 09:44:45;;;;;;;13.85;4.07;;;;;;;27.23;55.21;101355.63;4999308;28;20010;-50
2022/06/29 09:47:19;;;;;;;10.75;4.53;;;;;;;27.22;57.60;101356.69;4998758;28;20061;-52
2022/06/29 09:49:51;;;;;;;6.63;3.63;;;;;;;27.33;53.86;101349.44;5000209;28;20412;-53
2022/06/29 09:52:18;;;;;;;11.95;2.97;;;;;;;27.47;50.90;101356.13;4998847;28;20010;-51
2022/06/29 09:54:44;;;;;;;7.70;3.10;;;;;;;27.56;47.70;101350.97;4999686;28;20061;-51
2022/06/29 09:57:12;;;;;;;7.88;2.97;;;;;;;27.63;48.58;101342.50;4998886;28;20504;-52
2022/06/29 10:02:37;;;;;;;9.32;2.80;;;;;;;27.94;49.09;101350.97;4998991;28;20684;-53
2022/06/29 10:05:08;;;;;;;7.68;2.95;;;;;;;27.98;45.96;101349.34;5000076;28;20030;-51
2022/06/29 10:07:36;;;;;;;7.63;2.53;;;;;;;27.96;42.97;101346.88;4987287;28;20058;-52
2022/06/29 10:10:05;;;;;;;3.47;2.17;;;;;;;28.10;41.94;101338.97;5000123;28;20085;-52
2022/06/29 10:15:55;;;;;;;7.85;2.10;;;;;;;28.42;40.36;101349.03;4998574;28;20145;-53
2022/06/29 10:18:38;;;;;;;6.43;2.15;;;;;;;28.50;38.11;101347.66;4998769;28;20400;-51
2022/06/29 10:21:13;;;;;;;7.65;2.15;;;;;;;28.71;39.20;101340.34;4987283;28;20032;-51
2022/06/29 10:23:46;;;;;;;12.18;1.95;;;;;;;28.66;38.92;101343.91;4998278;28;20059;-52
2022/06/29 10:26:31;;;;;;;8.60;2.05;;;;;;;28.80;38.15;101335.97;4998065;28;20047;-52
2022/06/29 10:29:05;;;;;;;8.38;1.80;;;;;;;28.55;35.66;101339.44;4997538;28;20037;-51
2022/06/29 10:31:49;;;;;;;7.55;2.20;;;;;;;28.64;35.02;101333.19;4998589;28;20022;-52
2022/06/29 10:34:30;;;;;;;3.78;1.90;;;;;;;28.80;38.35;101334.06;4998273;28;20408;-53
2022/06/29 10:36:59;;;;;;;6.10;2.03;;;;;;;28.97;35.78;101330.22;4998274;28;20522;-52
2022/06/29 10:39:25;;;;;;;4.72;2.05;;;;;;;28.94;35.32;101322.53;4980732;28;20041;-51
2022/06/29 10:45:01;;;;;;;5.90;2.00;;;;;;;29.67;36.35;101322.25;4997091;28;20048;-51
2022/06/29 10:47:26;;;;;;;12.73;2.35;;;;;;;29.52;36.01;101320.34;4979478;28;20018;-51
2022/06/29 10:50:13;;;;;;;4.60;2.30;;;;;;;29.50;38.87;101310.69;4999032;28;20507;-51
2022/06/29 10:52:39;;;;;;;6.50;2.47;;;;;;;29.66;36.58;101312.31;4998126;28;20029;-51
2022/06/29 10:55:05;;;;;;;6.55;2.13;;;;;;;29.77;37.10;101307.69;4998438;28;20048;-53
2022/06/29 10:57:35;;;;;;;5.40;2.40;;;;;;;29.76;36.69;101295.81;4998234;28;20048;-53
2022/06/29 11:00:08;;;;;;;4.20;2.33;;;;;;;29.31;33.18;101296.69;4998706;28;20080;-53
2022/06/29 11:02:34;;;;;;;4.68;1.90;;;;;;;28.98;36.15;101298.88;4996582;28;20040;-55
2022/06/29 11:04:59;;;;;;;8.15;2.03;;;;;;;28.73;35.33;101297.72;4999084;28;20026;-58
2022/06/29 11:12:54;;;;;;;3.72;2.17;;;;;;;29.07;37.20;101299.97;4998680;28;20036;-55
2022/06/29 11:15:39;;;;;;;7.78;2.15;;;;;;;29.53;36.66;101290.88;4997291;28;20421;-52
2022/06/29 11:18:05;;;;;;;5.28;2.28;;;;;;;29.74;35.47;101292.50;4997541;28;20029;-51
2022/06/29 11:20:30;;;;;;;5.32;2.20;;;;;;;29.79;37.05;101293.59;4995165;28;20032;-54
2022/06/29 11:22:56;;;;;;;4.70;2.10;;;;;;;29.56;36.86;101290.34;4997548;28;20051;-52
2022/06/29 11:25:22;;;;;;;4.22;2.15;;;;;;;29.47;35.85;101292.81;5001595;28;21357;-52
2022/06/29 11:27:48;;;;;;;9.05;2.30;;;;;;;29.65;34.84;101296.94;5001888;28;20034;-52
2022/06/29 11:30:22;;;;;;;5.70;2.10;;;;;;;29.86;36.86;101292.22;5001077;28;20030;-50
2022/06/29 11:32:49;;;;;;;5.80;2.30;;;;;;;29.70;34.57;101290.56;5001518;28;20087;-52